Time;durP1;ratioP1;P1;durP2;ratioP2;P2;SDS_P1;SDS_P2;PMS_P1;PMS_P2;Temp;Humidity;BMP_temperature;BMP_pressure;BME280_temperature;BME280_humidity;BME280_pressure;Samples;Min_cycle;Max_cycle;Signal;HPM_P1;HPM_P2
2022/05/02 00:01:01;;;;;;;2.58;2.25;;;11.10;69.70;;;;;;638338;223;26756;-69
2022/05/02 00:03:29;;;;;;;2.25;1.92;;;11.10;73.20;;;;;;643111;221;26524;-69
2022/05/02 00:05:56;;;;;;;2.12;2.03;;;11.20;69.30;;;;;;638450;221;27082;-69
2022/05/02 00:08:23;;;;;;;1.92;1.83;;;11.10;72.70;;;;;;637292;225;26516;-69
2022/05/02 00:10:50;;;;;;;2.30;1.90;;;11.10;68.90;;;;;;640675;221;26523;-69
2022/05/02 00:13:18;;;;;;;1.90;1.80;;;11.10;73.70;;;;;;644677;221;26607;-69
2022/05/02 00:15:46;;;;;;;2.10;2.00;;;11.10;70.80;;;;;;650776;221;26594;-69
2022/05/02 00:18:14;;;;;;;2.90;1.83;;;11.10;73.00;;;;;;644480;221;26516;-69
2022/05/02 00:20:42;;;;;;;2.10;1.90;;;11.10;70.00;;;;;;638626;225;26512;-69
2022/05/02 00:23:09;;;;;;;2.33;2.10;;;11.00;69.20;;;;;;638479;223;26524;-69
2022/05/02 00:25:36;;;;;;;2.25;2.08;;;11.00;69.60;;;;;;638634;225;26515;-69
2022/05/02 00:28:05;;;;;;;2.20;2.10;;;11.00;71.80;;;;;;638562;225;26523;-69
2022/05/02 00:30:32;;;;;;;1.70;1.60;;;10.90;71.70;;;;;;638232;225;26501;-69
2022/05/02 00:33:00;;;;;;;2.17;1.98;;;11.00;71.30;;;;;;640495;221;26511;-69
2022/05/02 00:35:28;;;;;;;2.42;2.00;;;11.00;70.10;;;;;;640380;225;26504;-69
2022/05/02 00:37:55;;;;;;;1.80;1.70;;;11.00;70.10;;;;;;640010;224;26771;-69
2022/05/02 00:40:23;;;;;;;2.28;1.80;;;10.90;68.30;;;;;;639520;224;26494;-69
2022/05/02 00:42:50;;;;;;;2.10;1.90;;;11.00;65.90;;;;;;639237;225;26839;-69
2022/05/02 00:45:18;;;;;;;1.90;1.80;;;10.90;65.80;;;;;;639265;225;26743;-69
2022/05/02 00:47:50;;;;;;;2.42;2.00;;;11.00;66.90;;;;;;639189;225;26560;-69
2022/05/02 00:50:17;;;;;;;1.75;1.65;;;10.90;69.00;;;;;;639168;225;26564;-69
2022/05/02 00:52:44;;;;;;;2.08;1.90;;;11.00;68.90;;;;;;640998;221;26820;-70
2022/05/02 00:55:12;;;;;;;1.70;1.60;;;10.90;66.90;;;;;;638919;225;26543;-70
2022/05/02 00:57:39;;;;;;;1.83;1.73;;;10.90;65.70;;;;;;638577;221;26796;-69
2022/05/02 01:00:08;;;;;;;2.12;1.92;;;10.80;65.50;;;;;;643662;221;26567;-67
2022/05/02 01:02:36;;;;;;;2.30;2.20;;;10.70;65.40;;;;;;642811;221;26594;-78
2022/05/02 01:05:02;;;;;;;1.83;1.73;;;10.80;65.30;;;;;;639654;221;26549;-77
2022/05/02 01:07:29;;;;;;;2.72;1.70;;;10.80;65.00;;;;;;651139;221;26492;-77
2022/05/02 01:09:58;;;;;;;3.15;1.90;;;10.80;65.50;;;;;;645060;221;26593;-78
2022/05/02 01:12:26;;;;;;;2.53;1.67;;;10.80;65.50;;;;;;640151;219;26539;-78
2022/05/02 01:14:54;;;;;;;1.48;1.48;;;10.70;68.50;;;;;;638549;225;26489;-78
2022/05/02 01:17:22;;;;;;;1.80;1.70;;;10.70;66.70;;;;;;638228;221;26495;-78
2022/05/02 01:19:50;;;;;;;2.03;1.85;;;10.70;66.40;;;;;;648925;221;26592;-78
2022/05/02 01:22:17;;;;;;;2.10;1.90;;;10.60;67.70;;;;;;650678;218;26588;-78
2022/05/02 01:24:44;;;;;;;1.95;1.85;;;10.50;67.90;;;;;;650662;221;26929;-78
2022/05/02 01:27:11;;;;;;;1.83;1.62;;;10.50;67.90;;;;;;640309;221;26702;-78
2022/05/02 01:29:39;;;;;;;1.65;1.55;;;10.50;67.50;;;;;;640075;221;26513;-78
2022/05/02 01:32:07;;;;;;;2.10;1.70;;;10.50;68.80;;;;;;650792;221;26816;-78
2022/05/02 01:34:35;;;;;;;2.35;1.62;;;10.40;66.70;;;;;;650814;221;26571;-78
2022/05/02 01:37:02;;;;;;;2.08;1.70;;;10.30;66.10;;;;;;638647;221;26500;-78
2022/05/02 01:39:30;;;;;;;1.75;1.62;;;10.20;67.60;;;;;;638885;221;26521;-79
2022/05/02 01:42:02;;;;;;;1.77;1.60;;;10.20;68.20;;;;;;637507;225;26553;-78
2022/05/02 01:44:29;;;;;;;1.83;1.73;;;10.20;68.20;;;;;;642859;219;26574;-79
2022/05/02 01:46:58;;;;;;;1.80;1.70;;;10.10;69.00;;;;;;639115;224;26535;-79
2022/05/02 01:49:25;;;;;;;2.10;1.87;;;10.10;69.80;;;;;;652774;220;26555;-78
2022/05/02 01:51:53;;;;;;;1.73;1.50;;;10.10;70.40;;;;;;652513;220;26535;-78
2022/05/02 01:54:21;;;;;;;1.83;1.70;;;10.10;70.80;;;;;;651606;220;26565;-78
2022/05/02 01:56:49;;;;;;;1.77;1.67;;;10.00;70.90;;;;;;651434;221;26561;-78
2022/05/02 01:59:16;;;;;;;2.67;1.90;;;9.90;72.20;;;;;;651419;221;26619;-78
2022/05/02 02:01:44;;;;;;;1.73;1.62;;;9.90;72.20;;;;;;651339;221;26821;-78
2022/05/02 02:06:44;;;;;;;2.80;1.58;;;9.70;73.80;;;;;;651133;221;26760;-79
2022/05/02 02:09:12;;;;;;;1.95;1.67;;;9.60;73.00;;;;;;651105;221;26507;-79
2022/05/02 02:11:39;;;;;;;2.05;1.87;;;9.60;73.10;;;;;;651070;221;26783;-78
2022/05/02 02:14:07;;;;;;;1.60;1.50;;;9.50;75.40;;;;;;644337;221;26581;-79
2022/05/02 02:16:34;;;;;;;1.60;1.50;;;9.50;75.50;;;;;;637689;225;26599;-79
2022/05/02 02:19:01;;;;;;;2.55;1.67;;;9.50;76.30;;;;;;637658;225;26568;-79
2022/05/02 02:21:28;;;;;;;1.98;1.83;;;9.40;77.20;;;;;;637369;225;26871;-79
2022/05/02 02:23:55;;;;;;;2.95;2.15;;;9.50;74.00;;;;;;637299;225;26511;-80
2022/05/02 02:26:23;;;;;;;1.67;1.60;;;9.50;75.60;;;;;;637322;225;26500;-79
2022/05/02 02:28:51;;;;;;;2.00;1.85;;;9.60;73.70;;;;;;637321;225;26512;-79
2022/05/02 02:31:19;;;;;;;2.00;1.73;;;9.50;75.60;;;;;;637315;225;26523;-79
2022/05/02 02:33:46;;;;;;;1.67;1.58;;;9.50;75.60;;;;;;637333;224;26768;-80
2022/05/02 02:36:13;;;;;;;1.80;1.65;;;9.50;77.90;;;;;;637371;224;26504;-79
2022/05/02 02:38:40;;;;;;;1.40;1.30;;;9.40;75.50;;;;;;638274;225;26780;-80
2022/05/02 02:41:08;;;;;;;2.15;1.67;;;9.30;77.90;;;;;;638935;225;26571;-80
2022/05/02 02:43:36;;;;;;;1.80;1.70;;;9.20;77.00;;;;;;639060;223;26618;-79
2022/05/02 02:46:04;;;;;;;1.52;1.42;;;9.10;75.30;;;;;;641883;223;26808;-79
2022/05/02 02:48:31;;;;;;;2.40;1.70;;;9.00;75.20;;;;;;638619;224;26755;-80
2022/05/02 02:51:00;;;;;;;1.73;1.62;;;9.00;73.90;;;;;;638606;223;26506;-79
2022/05/02 02:53:29;;;;;;;2.00;1.50;;;8.90;74.40;;;;;;638527;225;26826;-80
2022/05/02 02:55:57;;;;;;;1.50;1.40;;;8.80;75.30;;;;;;639417;223;26568;-80
2022/05/02 02:58:24;;;;;;;2.15;1.83;;;8.70;75.20;;;;;;640030;224;26614;-79
2022/05/02 03:00:52;;;;;;;1.60;1.50;;;8.70;75.00;;;;;;639665;224;26523;-80
2022/05/02 03:03:19;;;;;;;1.50;1.40;;;8.60;74.70;;;;;;639503;223;27214;-80
2022/05/02 03:08:20;;;;;;;1.70;1.60;;;8.50;79.20;;;;;;638078;224;26527;-79
2022/05/02 03:10:47;;;;;;;1.50;1.40;;;8.50;75.80;;;;;;638076;224;26502;-80
2022/05/02 03:13:14;;;;;;;1.45;1.35;;;8.50;75.70;;;;;;638005;223;26563;-80
2022/05/02 03:15:41;;;;;;;1.75;1.65;;;8.40;75.90;;;;;;639031;224;26526;-79
2022/05/02 03:18:08;;;;;;;1.50;1.50;;;8.40;76.30;;;;;;639287;224;26771;-79
2022/05/02 03:20:36;;;;;;;1.65;1.55;;;8.40;75.80;;;;;;639228;224;26520;-80
2022/05/02 03:23:03;;;;;;;1.75;1.65;;;8.30;76.00;;;;;;639194;223;26832;-80
2022/05/02 03:25:31;;;;;;;1.50;1.40;;;8.30;76.30;;;;;;639222;224;26470;-79
2022/05/02 03:27:59;;;;;;;1.70;1.60;;;8.30;76.20;;;;;;639246;224;26530;-78
2022/05/02 03:30:26;;;;;;;1.75;1.65;;;8.30;76.20;;;;;;639254;223;26569;-79
2022/05/02 03:32:53;;;;;;;1.33;1.33;;;8.30;75.90;;;;;;639004;224;26606;-80
2022/05/02 03:35:20;;;;;;;1.42;1.42;;;8.30;76.20;;;;;;644537;221;26997;-80
2022/05/02 03:37:47;;;;;;;1.70;1.60;;;8.30;77.70;;;;;;650799;221;26547;-79
2022/05/02 03:40:15;;;;;;;3.03;1.48;;;8.30;76.10;;;;;;650777;221;26805;-80
2022/05/02 03:42:43;;;;;;;1.40;1.40;;;8.30;76.10;;;;;;650776;221;26595;-79
2022/05/02 03:45:11;;;;;;;1.60;1.50;;;8.30;76.70;;;;;;639789;221;26548;-79
2022/05/02 03:47:38;;;;;;;1.85;1.60;;;8.30;76.10;;;;;;638539;224;26563;-79
2022/05/02 03:50:06;;;;;;;1.55;1.45;;;8.30;76.70;;;;;;638602;225;26554;-79
2022/05/02 03:52:33;;;;;;;1.60;1.50;;;8.40;75.90;;;;;;638533;222;26546;-79
2022/05/02 03:55:00;;;;;;;1.60;1.50;;;8.40;76.50;;;;;;648306;221;27192;-79
2022/05/02 03:57:27;;;;;;;1.60;1.50;;;8.50;76.60;;;;;;650816;221;26492;-79
2022/05/02 03:59:55;;;;;;;1.42;1.35;;;8.50;77.80;;;;;;650776;221;26577;-79
2022/05/02 04:02:23;;;;;;;1.37;1.27;;;8.60;77.50;;;;;;650734;217;26592;-79
2022/05/02 04:04:51;;;;;;;1.62;1.52;;;8.60;81.10;;;;;;650820;221;26577;-79
2022/05/02 04:07:18;;;;;;;1.98;1.50;;;8.60;80.90;;;;;;651469;218;26799;-80
2022/05/02 04:09:45;;;;;;;1.37;1.30;;;8.60;79.00;;;;;;652377;220;26528;-81
2022/05/02 04:12:12;;;;;;;1.75;1.50;;;8.60;77.00;;;;;;651999;218;26811;-80
2022/05/02 04:14:40;;;;;;;1.83;1.50;;;8.60;77.10;;;;;;651794;221;26511;-80
2022/05/02 04:17:10;;;;;;;1.50;1.40;;;8.70;80.00;;;;;;651565;220;26500;-80
2022/05/02 04:19:36;;;;;;;1.40;1.30;;;8.70;76.90;;;;;;651436;221;26558;-80
2022/05/02 04:22:03;;;;;;;1.75;1.40;;;8.70;76.60;;;;;;651419;217;26806;-80
2022/05/02 04:24:31;;;;;;;1.40;1.40;;;8.60;76.70;;;;;;651497;221;26574;-80
2022/05/02 04:26:58;;;;;;;1.60;1.48;;;8.70;79.40;;;;;;651080;221;26484;-80
2022/05/02 04:29:25;;;;;;;1.65;1.55;;;8.70;79.30;;;;;;651189;221;26519;-80
2022/05/02 04:31:52;;;;;;;1.60;1.50;;;8.80;76.30;;;;;;651064;221;26835;-80
2022/05/02 04:34:19;;;;;;;1.50;1.40;;;8.80;76.80;;;;;;651147;221;26509;-81
2022/05/02 04:36:46;;;;;;;1.70;1.60;;;8.80;79.20;;;;;;651134;221;26511;-80
2022/05/02 04:39:14;;;;;;;2.15;1.85;;;8.90;77.70;;;;;;651096;221;26503;-80
2022/05/02 04:41:42;;;;;;;1.40;1.30;;;8.80;76.40;;;;;;651042;218;26531;-80
2022/05/02 04:44:10;;;;;;;1.40;1.30;;;8.80;76.40;;;;;;650886;221;26791;-79
2022/05/02 04:46:37;;;;;;;1.40;1.30;;;8.80;78.00;;;;;;650811;221;26569;-79
2022/05/02 04:49:04;;;;;;;1.95;1.40;;;8.80;79.20;;;;;;650527;221;26800;-79
2022/05/02 04:51:31;;;;;;;1.30;1.23;;;8.80;78.40;;;;;;638594;222;26555;-80
2022/05/02 04:53:58;;;;;;;1.12;1.12;;;8.90;79.70;;;;;;648051;221;26485;-79
2022/05/02 04:56:26;;;;;;;1.60;1.60;;;8.90;77.80;;;;;;637514;221;26531;-80
2022/05/02 04:58:54;;;;;;;1.35;1.25;;;8.90;77.70;;;;;;650667;221;26811;-79
2022/05/02 05:01:22;;;;;;;2.20;1.50;;;9.00;76.70;;;;;;650718;218;26570;-79
2022/05/02 05:03:50;;;;;;;1.62;1.52;;;9.10;81.80;;;;;;652298;220;26600;-80
2022/05/02 05:06:17;;;;;;;2.55;1.60;;;9.00;81.70;;;;;;639874;220;26511;-80
2022/05/02 05:08:45;;;;;;;1.40;1.40;;;9.10;81.60;;;;;;638641;224;26826;-80
2022/05/02 05:11:19;;;;;;;1.65;1.45;;;9.20;76.60;;;;;;638887;225;26566;-79
2022/05/02 05:16:39;;;;;;;1.65;1.55;;;9.40;76.00;;;;;;636166;221;26598;-80
2022/05/02 05:19:13;;;;;;;1.70;1.50;;;9.40;73.90;;;;;;650408;219;26594;-80
2022/05/02 05:21:41;;;;;;;1.52;1.50;;;9.40;73.90;;;;;;645872;220;26626;-80
2022/05/02 05:24:19;;;;;;;1.37;1.30;;;9.50;75.70;;;;;;638923;224;26515;-80
2022/05/02 05:27:02;;;;;;;1.50;1.50;;;9.70;78.10;;;;;;639499;221;26558;-79
2022/05/02 05:29:35;;;;;;;1.42;1.33;;;9.70;77.90;;;;;;637227;225;26644;-78
2022/05/02 05:32:17;;;;;;;3.00;1.20;;;9.90;77.70;;;;;;638783;222;26595;-79
2022/05/02 05:34:45;;;;;;;1.87;1.35;;;10.00;74.70;;;;;;630111;224;26579;-79
2022/05/02 05:37:28;;;;;;;1.92;1.83;;;10.30;72.20;;;;;;638795;224;26773;-68
2022/05/02 05:40:20;;;;;;;1.60;1.48;;;10.60;70.20;;;;;;639899;220;26843;-68
2022/05/02 05:42:50;;;;;;;1.58;1.48;;;10.90;72.60;;;;;;653236;220;26571;-69
2022/05/02 05:45:20;;;;;;;1.20;1.20;;;11.40;67.20;;;;;;653068;220;26816;-68
2022/05/02 05:47:51;;;;;;;1.52;1.40;;;11.30;67.10;;;;;;653144;220;26579;-68
2022/05/02 05:50:21;;;;;;;1.45;1.35;;;11.50;68.40;;;;;;652847;220;26573;-68
2022/05/02 05:52:50;;;;;;;1.50;1.40;;;11.70;73.00;;;;;;642676;220;26591;-69
2022/05/02 05:55:22;;;;;;;1.67;1.62;;;11.80;72.90;;;;;;638403;223;26507;-68
2022/05/02 05:58:08;;;;;;;1.48;1.33;;;11.90;70.10;;;;;;638366;224;26487;-67
2022/05/02 06:00:36;;;;;;;1.70;1.60;;;11.90;67.80;;;;;;635094;224;26601;-67
2022/05/02 06:03:08;;;;;;;1.40;1.30;;;12.00;69.00;;;;;;639007;221;26572;-68
2022/05/02 06:05:35;;;;;;;1.40;1.30;;;12.20;70.50;;;;;;640696;221;26512;-68
2022/05/02 06:08:03;;;;;;;1.48;1.10;;;12.20;68.80;;;;;;638755;221;26515;-68
2022/05/02 06:10:31;;;;;;;1.40;1.30;;;12.30;68.80;;;;;;637245;221;26500;-67
2022/05/02 06:12:59;;;;;;;3.67;2.25;;;12.30;62.70;;;;;;637442;224;26590;-67
2022/05/02 06:20:34;;;;;;;2.40;1.40;;;12.40;69.30;;;;;;641795;221;26770;-68
2022/05/02 06:23:00;;;;;;;1.62;1.52;;;12.60;66.60;;;;;;643431;221;26556;-68
2022/05/02 06:25:28;;;;;;;1.25;1.20;;;12.70;66.60;;;;;;640372;221;26745;-68
2022/05/02 06:27:55;;;;;;;1.37;1.20;;;12.80;66.60;;;;;;637350;225;26624;-68
2022/05/02 06:30:23;;;;;;;1.50;1.40;;;12.80;69.10;;;;;;640688;223;26771;-70
2022/05/02 06:32:49;;;;;;;1.70;1.20;;;12.90;61.80;;;;;;645804;222;26605;-69
2022/05/02 06:35:17;;;;;;;2.12;1.67;;;13.00;67.00;;;;;;640331;222;26514;-69
2022/05/02 06:37:51;;;;;;;2.80;1.50;;;13.10;66.50;;;;;;642694;221;26564;-71
2022/05/02 06:40:19;;;;;;;1.62;1.50;;;13.10;62.90;;;;;;640883;221;26507;-71
2022/05/02 06:42:51;;;;;;;1.60;1.48;;;13.10;61.60;;;;;;640525;221;26782;-71
2022/05/02 06:45:22;;;;;;;1.70;1.60;;;13.20;61.00;;;;;;646434;221;26562;-71
2022/05/02 06:47:59;;;;;;;2.25;1.40;;;13.30;60.10;;;;;;643149;221;26554;-71
2022/05/02 06:50:27;;;;;;;1.60;1.37;;;13.50;58.80;;;;;;650743;221;26587;-71
2022/05/02 06:53:02;;;;;;;3.20;1.60;;;13.50;55.50;;;;;;650990;217;26540;-71
2022/05/02 06:55:38;;;;;;;1.30;1.20;;;13.50;55.60;;;;;;644835;221;26561;-71
2022/05/02 06:58:16;;;;;;;2.00;1.85;;;13.50;55.10;;;;;;641935;221;26722;-71
2022/05/02 07:00:44;;;;;;;2.12;1.62;;;13.60;55.20;;;;;;638782;222;26519;-70
2022/05/02 07:03:20;;;;;;;2.28;1.40;;;13.70;55.00;;;;;;643767;221;26553;-71
2022/05/02 07:06:01;;;;;;;2.00;1.80;;;13.70;54.50;;;;;;644020;219;26557;-71
2022/05/02 07:08:29;;;;;;;1.70;1.60;;;13.60;53.30;;;;;;650586;221;26611;-71
2022/05/02 07:10:59;;;;;;;1.65;1.50;;;13.80;54.30;;;;;;648841;221;26551;-72
2022/05/02 07:13:29;;;;;;;2.08;1.90;;;13.80;54.30;;;;;;643791;221;26807;-71
2022/05/02 07:16:10;;;;;;;1.62;1.40;;;14.00;58.00;;;;;;650200;221;26559;-71
2022/05/02 07:18:53;;;;;;;1.50;1.40;;;14.00;58.10;;;;;;641552;221;26492;-71
2022/05/02 07:21:26;;;;;;;1.52;1.23;;;14.10;55.50;;;;;;639481;220;26508;-71
2022/05/02 07:24:09;;;;;;;1.95;1.30;;;14.20;53.50;;;;;;637712;224;26730;-70
2022/05/02 07:26:36;;;;;;;2.25;1.70;;;14.30;58.70;;;;;;637350;222;26521;-71
2022/05/02 07:29:04;;;;;;;1.37;1.30;;;14.40;55.10;;;;;;638434;221;26716;-71
2022/05/02 07:31:31;;;;;;;1.23;1.20;;;14.30;54.90;;;;;;637552;221;26913;-71
2022/05/02 07:33:58;;;;;;;1.52;1.42;;;14.40;57.30;;;;;;637456;224;26586;-71
2022/05/02 07:36:26;;;;;;;1.80;1.70;;;14.50;57.30;;;;;;638536;224;26757;-71
2022/05/02 07:38:53;;;;;;;2.78;1.30;;;14.60;54.50;;;;;;648628;221;26543;-69
2022/05/02 07:41:22;;;;;;;2.28;1.62;;;14.70;54.30;;;;;;646022;221;26772;-69
2022/05/02 07:43:50;;;;;;;1.58;1.48;;;14.60;56.60;;;;;;641193;219;26577;-69
2022/05/02 07:46:20;;;;;;;1.37;1.10;;;14.80;55.60;;;;;;640886;220;26814;-68
2022/05/02 07:48:47;;;;;;;3.42;1.62;;;15.00;56.20;;;;;;646580;221;26595;-69
2022/05/02 07:51:14;;;;;;;2.33;1.80;;;15.00;55.70;;;;;;642604;221;26780;-68
2022/05/02 07:53:41;;;;;;;3.28;1.87;;;15.10;55.40;;;;;;639823;221;26521;-69
2022/05/02 07:56:08;;;;;;;4.10;1.80;;;15.20;56.30;;;;;;645573;221;26757;-68
2022/05/02 08:01:21;;;;;;;3.25;1.27;;;15.10;54.80;;;;;;641544;221;26537;-68
2022/05/02 08:06:38;;;;;;;2.10;1.33;;;15.10;56.20;;;;;;646584;221;26531;-68
2022/05/02 08:09:32;;;;;;;1.60;1.50;;;15.20;56.80;;;;;;638657;221;26558;-68
2022/05/02 08:12:20;;;;;;;1.62;1.37;;;15.20;56.70;;;;;;644389;220;26617;-67
2022/05/02 08:14:48;;;;;;;2.85;1.50;;;15.20;54.80;;;;;;638828;221;26539;-67
2022/05/02 08:17:19;;;;;;;1.60;1.48;;;15.10;54.80;;;;;;640363;221;26514;-68
2022/05/02 08:19:49;;;;;;;3.28;1.80;;;15.20;54.80;;;;;;642607;221;26766;-68
2022/05/02 08:27:43;;;;;;;1.92;1.73;;;15.40;55.40;;;;;;650799;221;26564;-69
2022/05/02 08:30:09;;;;;;;1.50;1.40;;;15.40;56.10;;;;;;640963;221;26779;-68
2022/05/02 08:32:41;;;;;;;3.67;1.90;;;15.40;56.90;;;;;;640171;221;26592;-68
2022/05/02 08:35:09;;;;;;;2.25;1.83;;;15.50;55.30;;;;;;638190;221;26799;-68
2022/05/02 08:37:37;;;;;;;11.35;2.10;;;15.50;55.20;;;;;;648222;221;26573;-68
2022/05/02 08:40:15;;;;;;;3.05;2.20;;;15.50;55.30;;;;;;650018;221;27040;-68
2022/05/02 08:42:44;;;;;;;5.70;2.33;;;15.60;55.00;;;;;;646137;221;26591;-71
2022/05/02 08:45:26;;;;;;;4.15;1.83;;;15.50;55.20;;;;;;637828;225;26552;-68
2022/05/02 08:48:00;;;;;;;72.43;15.65;;;15.50;55.10;;;;;;638149;223;26600;-71
2022/05/02 08:50:29;;;;;;;114.65;23.33;;;15.60;54.90;;;;;;638655;224;26550;-71
2022/05/02 08:53:03;;;;;;;949.58;113.70;;;15.40;55.00;;;;;;638385;223;26540;-71
2022/05/02 08:55:49;;;;;;;124.12;24.80;;;15.50;55.50;;;;;;639783;220;27178;-71
2022/05/02 08:58:28;;;;;;;111.82;23.55;;;15.50;55.40;;;;;;646466;221;26725;-68
2022/05/02 09:01:17;;;;;;;85.60;18.75;;;15.80;57.90;;;;;;639550;224;26514;-68
2022/05/02 09:04:19;;;;;;;77.55;15.70;;;15.70;57.60;;;;;;648257;221;26575;-69
2022/05/02 09:06:58;;;;;;;59.70;14.55;;;15.80;54.60;;;;;;628007;222;26584;-67
2022/05/02 09:09:49;;;;;;;32.42;9.02;;;15.90;55.40;;;;;;642237;221;26562;-68
2022/05/02 09:12:19;;;;;;;41.65;11.55;;;15.90;55.30;;;;;;636969;225;26585;-68
2022/05/02 09:14:58;;;;;;;38.72;11.07;;;16.00;56.70;;;;;;637608;225;26549;-68
2022/05/02 09:17:46;;;;;;;45.63;11.40;;;16.10;55.40;;;;;;639039;221;26810;-68
2022/05/02 09:20:20;;;;;;;42.25;10.25;;;16.10;54.10;;;;;;632868;222;27201;-67
2022/05/02 09:22:52;;;;;;;38.58;10.00;;;16.10;53.90;;;;;;638871;224;26566;-68
2022/05/02 09:25:44;;;;;;;31.17;9.63;;;15.90;53.60;;;;;;637450;224;26566;-68
2022/05/02 09:28:30;;;;;;;26.95;7.85;;;16.00;53.90;;;;;;638528;221;26593;-67
2022/05/02 09:30:59;;;;;;;14.77;5.87;;;16.00;54.00;;;;;;637943;224;26493;-67
2022/05/02 09:33:31;;;;;;;9.05;4.35;;;16.20;53.90;;;;;;637750;225;26779;-69
2022/05/02 09:36:01;;;;;;;9.93;3.58;;;16.30;53.90;;;;;;638381;221;26487;-68
2022/05/02 09:38:29;;;;;;;13.52;4.87;;;16.30;54.00;;;;;;639927;221;26520;-68
2022/05/02 09:40:59;;;;;;;6.40;2.78;;;16.10;55.60;;;;;;638554;222;26905;-68
2022/05/02 09:51:49;;;;;;;2.05;1.65;;;16.60;55.50;;;;;;638258;225;26780;-69
2022/05/02 09:57:05;;;;;;;6.55;3.05;;;17.10;54.90;;;;;;638420;225;26523;-68
2022/05/02 09:59:32;;;;;;;8.52;2.67;;;17.30;53.20;;;;;;638274;224;26759;-68
2022/05/02 10:02:01;;;;;;;5.47;2.67;;;17.00;53.90;;;;;;638416;224;26519;-68
2022/05/02 10:04:31;;;;;;;11.70;3.15;;;16.90;52.60;;;;;;638596;224;26765;-67
2022/05/02 10:07:11;;;;;;;4.15;2.25;;;17.00;52.90;;;;;;640229;223;26754;-70
2022/05/02 10:09:51;;;;;;;5.03;2.70;;;17.10;52.80;;;;;;639749;225;26799;-69
2022/05/02 10:12:27;;;;;;;5.55;2.95;;;17.20;52.40;;;;;;639294;223;26792;-68
2022/05/02 10:15:14;;;;;;;5.95;2.65;;;17.20;51.90;;;;;;638974;224;26816;-69
2022/05/02 10:17:54;;;;;;;6.22;3.00;;;17.30;52.30;;;;;;638938;224;26510;-69
2022/05/02 10:20:22;;;;;;;3.67;2.10;;;17.40;52.30;;;;;;638908;224;26566;-67
2022/05/02 10:23:02;;;;;;;2.87;1.70;;;17.30;52.30;;;;;;639086;224;26593;-67
2022/05/02 10:26:06;;;;;;;2.20;1.60;;;17.50;52.40;;;;;;638759;224;26598;-71
2022/05/02 10:28:42;;;;;;;2.70;1.85;;;17.50;53.00;;;;;;635360;224;26596;-69
2022/05/02 10:31:13;;;;;;;2.42;1.55;;;17.70;52.60;;;;;;638243;224;26544;-70
2022/05/02 10:33:44;;;;;;;4.03;2.22;;;17.80;52.70;;;;;;638574;225;26586;-70
2022/05/02 10:36:12;;;;;;;4.57;2.47;;;18.00;52.00;;;;;;638427;224;26570;-70
2022/05/02 10:38:39;;;;;;;2.75;2.10;;;17.90;51.80;;;;;;638555;224;26542;-70
2022/05/02 10:41:07;;;;;;;5.95;2.40;;;17.70;51.90;;;;;;638233;223;26580;-70
2022/05/02 10:43:34;;;;;;;5.12;2.40;;;17.70;51.40;;;;;;638535;224;26519;-70
2022/05/02 10:46:02;;;;;;;5.22;2.50;;;17.80;51.70;;;;;;638680;224;26503;-70
2022/05/02 10:48:31;;;;;;;2.28;2.08;;;17.90;51.80;;;;;;638629;225;26553;-70
2022/05/02 10:51:16;;;;;;;4.40;2.30;;;18.10;51.80;;;;;;638432;224;26563;-70
2022/05/02 10:53:50;;;;;;;6.10;2.55;;;18.20;51.30;;;;;;636547;224;26577;-71
2022/05/02 10:56:19;;;;;;;4.80;2.35;;;18.10;50.70;;;;;;638231;225;26511;-74
2022/05/02 10:58:45;;;;;;;1.92;1.80;;;18.20;51.10;;;;;;638527;224;27041;-72
2022/05/02 11:01:18;;;;;;;1.45;1.35;;;18.30;53.90;;;;;;638551;225;26495;-72
2022/05/02 11:03:54;;;;;;;1.70;1.60;;;18.50;52.10;;;;;;639786;221;26528;-72
2022/05/02 11:06:22;;;;;;;1.67;1.58;;;18.50;52.10;;;;;;638655;225;26482;-73
2022/05/02 11:08:52;;;;;;;3.45;2.40;;;18.80;52.60;;;;;;638317;224;26529;-71
2022/05/02 11:11:18;;;;;;;3.53;2.53;;;19.20;51.10;;;;;;638456;224;26499;-71
2022/05/02 11:13:51;;;;;;;3.05;2.35;;;19.30;49.80;;;;;;638307;224;26485;-72
2022/05/02 11:16:22;;;;;;;4.10;2.15;;;18.90;49.70;;;;;;638556;223;26556;-72
2022/05/02 11:21:34;;;;;;;4.57;2.37;;;18.30;50.00;;;;;;639527;224;26792;-72
2022/05/02 11:24:09;;;;;;;3.33;2.40;;;18.30;50.00;;;;;;639209;224;26518;-72
2022/05/02 11:26:43;;;;;;;1.60;1.50;;;18.90;50.30;;;;;;639318;224;26529;-72
2022/05/02 11:29:17;;;;;;;4.45;1.90;;;18.80;50.20;;;;;;639109;224;26590;-72
2022/05/02 11:31:48;;;;;;;1.92;1.80;;;19.30;50.00;;;;;;639198;224;26585;-72
2022/05/02 11:34:21;;;;;;;6.05;2.42;;;19.30;50.00;;;;;;639375;223;26488;-71
2022/05/02 11:36:48;;;;;;;6.10;2.65;;;19.50;49.20;;;;;;638939;224;26889;-68
2022/05/02 11:39:16;;;;;;;2.95;2.35;;;19.40;48.70;;;;;;639116;224;26531;-69
2022/05/02 11:41:44;;;;;;;4.70;2.42;;;19.50;48.90;;;;;;639127;224;26558;-68
2022/05/02 11:44:12;;;;;;;2.80;2.60;;;20.00;48.70;;;;;;639225;224;26761;-68
2022/05/02 11:46:45;;;;;;;4.68;2.37;;;20.10;48.50;;;;;;638901;224;26566;-68
2022/05/02 11:49:18;;;;;;;2.97;2.42;;;20.20;49.70;;;;;;638683;224;26812;-68
2022/05/02 11:51:47;;;;;;;4.18;2.30;;;20.10;48.80;;;;;;638421;224;26566;-68
2022/05/02 11:54:21;;;;;;;2.30;2.10;;;20.30;49.20;;;;;;638407;224;26495;-68
2022/05/02 11:56:49;;;;;;;1.83;1.73;;;20.60;50.40;;;;;;638281;224;26512;-68
2022/05/02 11:59:16;;;;;;;2.97;2.40;;;20.50;50.30;;;;;;638477;224;26541;-69
2022/05/02 12:01:44;;;;;;;4.50;2.50;;;20.40;47.80;;;;;;638386;225;26781;-68
2022/05/02 12:04:11;;;;;;;3.05;2.70;;;20.40;47.90;;;;;;638441;223;26521;-69
2022/05/02 12:06:41;;;;;;;2.95;2.33;;;20.20;47.70;;;;;;638407;224;26752;-70
2022/05/02 12:09:09;;;;;;;2.03;1.92;;;20.30;47.80;;;;;;638316;224;26775;-68
2022/05/02 12:11:36;;;;;;;2.55;2.35;;;20.20;48.40;;;;;;638234;224;26885;-68
2022/05/02 12:14:04;;;;;;;2.70;2.40;;;20.60;47.70;;;;;;638017;224;26519;-69
2022/05/02 12:16:33;;;;;;;2.80;2.60;;;20.90;47.60;;;;;;638648;225;26507;-68
2022/05/02 12:19:04;;;;;;;2.72;2.28;;;21.10;47.10;;;;;;638608;224;26528;-69
2022/05/02 12:21:33;;;;;;;2.47;2.28;;;21.10;47.30;;;;;;638416;224;26755;-69
2022/05/02 12:24:00;;;;;;;4.25;2.70;;;21.10;47.30;;;;;;638556;224;26502;-68
2022/05/02 12:26:27;;;;;;;5.32;2.80;;;20.90;46.90;;;;;;638654;225;26756;-69
2022/05/02 12:28:55;;;;;;;4.93;2.50;;;20.70;47.30;;;;;;639668;223;26599;-68
2022/05/02 12:31:26;;;;;;;4.30;2.50;;;20.70;46.90;;;;;;639951;224;26707;-68
2022/05/02 12:33:55;;;;;;;3.58;2.78;;;20.60;47.90;;;;;;639628;224;26538;-68
2022/05/02 12:36:21;;;;;;;2.85;2.33;;;20.60;47.10;;;;;;639583;224;26755;-69
2022/05/02 12:38:50;;;;;;;2.80;2.60;;;21.10;47.00;;;;;;639175;224;26557;-68
2022/05/02 12:41:17;;;;;;;3.60;2.50;;;21.60;46.30;;;;;;639065;222;26575;-68
2022/05/02 12:43:45;;;;;;;2.50;2.30;;;21.80;46.20;;;;;;639084;224;26586;-68
2022/05/02 12:46:13;;;;;;;2.33;2.17;;;22.10;45.90;;;;;;639157;225;26557;-68
2022/05/02 12:48:41;;;;;;;1.77;1.50;;;22.40;45.80;;;;;;638829;225;26519;-69
2022/05/02 12:51:09;;;;;;;2.03;1.67;;;22.60;45.80;;;;;;638948;225;26551;-68
2022/05/02 12:56:08;;;;;;;3.28;2.58;;;23.00;46.00;;;;;;639286;224;26500;-69
2022/05/02 13:01:10;;;;;;;2.70;2.50;;;23.10;45.00;;;;;;639330;224;26538;-68
2022/05/02 13:03:36;;;;;;;2.53;2.30;;;23.10;45.00;;;;;;639214;224;26568;-68
2022/05/02 13:06:05;;;;;;;3.03;2.15;;;23.00;45.20;;;;;;638948;224;26488;-68
2022/05/02 13:08:34;;;;;;;3.78;2.67;;;23.30;44.90;;;;;;638902;224;26483;-69
2022/05/02 13:11:03;;;;;;;2.67;2.35;;;23.50;44.80;;;;;;638935;224;26551;-69
2022/05/02 13:13:45;;;;;;;4.55;2.33;;;23.70;44.10;;;;;;638878;224;26527;-69
2022/05/02 13:16:17;;;;;;;2.97;2.40;;;24.40;43.70;;;;;;638972;224;26503;-68
2022/05/02 13:18:45;;;;;;;2.40;2.05;;;23.70;43.50;;;;;;638882;223;26487;-72
2022/05/02 13:21:12;;;;;;;2.47;2.25;;;23.30;43.90;;;;;;638808;224;26495;-68
2022/05/02 13:23:42;;;;;;;5.55;2.40;;;23.30;43.90;;;;;;638876;224;26494;-72
2022/05/02 13:26:10;;;;;;;3.25;2.60;;;23.40;43.60;;;;;;638844;223;26503;-76
2022/05/02 13:28:36;;;;;;;5.80;2.70;;;23.40;43.20;;;;;;638350;224;26552;-71
2022/05/02 13:31:05;;;;;;;6.03;2.35;;;24.20;43.50;;;;;;638373;224;26515;-71
2022/05/02 13:33:35;;;;;;;5.87;2.50;;;25.30;42.00;;;;;;638111;224;26535;-70
2022/05/02 13:36:02;;;;;;;5.20;2.80;;;25.30;42.00;;;;;;638577;224;26541;-70
2022/05/02 13:38:28;;;;;;;2.47;2.25;;;25.60;41.50;;;;;;638504;224;26528;-70
2022/05/02 13:41:01;;;;;;;4.32;2.50;;;24.60;41.80;;;;;;639899;223;26807;-71
2022/05/02 13:43:38;;;;;;;5.75;2.47;;;25.60;41.20;;;;;;639742;224;26564;-71
2022/05/02 13:46:11;;;;;;;3.10;2.78;;;27.10;40.30;;;;;;639438;224;26522;-71